createdAt,value
2023-02-28T00:00:36.325Z,-2.27
2023-02-28T00:03:03.890Z,-2.27
2023-02-28T00:05:30.761Z,-2.28
2023-02-28T00:07:57.553Z,-2.28
2023-02-28T00:10:26.916Z,-2.29
2023-02-28T00:12:57.150Z,-2.30
2023-02-28T00:15:24.463Z,-2.31
2023-02-28T00:17:51.474Z,-2.31
2023-02-28T00:20:18.276Z,-2.32
2023-02-28T00:22:47.880Z,-2.33
2023-02-28T00:25:17.484Z,-2.36
2023-02-28T00:27:45.167Z,-2.38
2023-02-28T00:30:14.299Z,-2.41
2023-02-28T00:32:41.724Z,-2.41
2023-02-28T00:35:09.017Z,-2.42
2023-02-28T00:37:37.711Z,-2.42
2023-02-28T00:40:06.746Z,-2.43
2023-02-28T00:42:34.551Z,-2.43
2023-02-28T00:45:01.784Z,-2.44
2023-02-28T00:47:37.207Z,-2.45
2023-02-28T00:50:04.848Z,-2.46
2023-02-28T00:52:31.945Z,-2.46
2023-02-28T00:54:58.900Z,-2.44
2023-02-28T00:57:26.041Z,-2.42
2023-02-28T00:59:54.663Z,-2.42
2023-02-28T01:02:22.896Z,-2.40
2023-02-28T01:04:51.498Z,-2.37
2023-02-28T01:07:19.567Z,-2.36
2023-02-28T01:09:46.996Z,-2.37
2023-02-28T01:12:15.114Z,-2.38
2023-02-28T01:14:42.412Z,-2.39
2023-02-28T01:17:09.695Z,-2.41
2023-02-28T01:19:36.366Z,-2.42
2023-02-28T01:22:04.201Z,-2.42
2023-02-28T01:24:34.935Z,-2.41
2023-02-28T01:27:03.328Z,-2.42
2023-02-28T01:29:30.456Z,-2.41
2023-02-28T01:31:57.675Z,-2.41
2023-02-28T01:34:24.489Z,-2.41
2023-02-28T01:36:51.653Z,-2.43
2023-02-28T01:39:20.015Z,-2.43
2023-02-28T01:41:46.816Z,-2.42
2023-02-28T01:44:51.587Z,-2.41
2023-02-28T01:47:18.416Z,-2.42
2023-02-28T01:49:45.064Z,-2.44
2023-02-28T01:52:18.563Z,-2.44
2023-02-28T01:54:55.682Z,-2.44
2023-02-28T01:57:24.895Z,-2.46
2023-02-28T02:00:00.216Z,-2.47
2023-02-28T02:02:28.336Z,-2.48
2023-02-28T02:04:56.070Z,-2.46
2023-02-28T02:07:22.921Z,-2.45
2023-02-28T02:09:51.083Z,-2.45
2023-02-28T02:12:44.122Z,-2.47
2023-02-28T02:15:20.447Z,-2.49
2023-02-28T02:17:50.027Z,-2.52
2023-02-28T02:20:32.991Z,-2.54
2023-02-28T02:23:03.081Z,-2.57
2023-02-28T02:25:34.916Z,-2.61
2023-02-28T02:28:05.752Z,-2.65
2023-02-28T02:31:06.422Z,-2.68
2023-02-28T02:33:45.615Z,-2.71
2023-02-28T02:36:20.107Z,-2.73
2023-02-28T02:38:51.042Z,-2.74
2023-02-28T02:41:40.343Z,-2.75
2023-02-28T02:44:22.655Z,-2.77
2023-02-28T02:46:51.352Z,-2.79
2023-02-28T02:49:27.349Z,-2.81
2023-02-28T02:51:55.922Z,-2.80
2023-02-28T02:54:29.086Z,-2.80
2023-02-28T02:57:00.109Z,-2.80
2023-02-28T02:59:28.752Z,-2.80
2023-02-28T03:02:02.277Z,-2.78
2023-02-28T03:04:32.045Z,-2.77
2023-02-28T03:06:59.878Z,-2.73
2023-02-28T03:09:27.584Z,-2.69
2023-02-28T03:11:56.172Z,-2.68
2023-02-28T03:15:16.086Z,-2.67
2023-02-28T03:17:55.593Z,-2.68
2023-02-28T03:20:34.913Z,-2.69
2023-02-28T03:23:04.009Z,-2.70
2023-02-28T03:25:36.200Z,-2.72
2023-02-28T03:28:33.408Z,-2.73
2023-02-28T03:31:09.601Z,-2.72
2023-02-28T03:33:46.596Z,-2.72
2023-02-28T03:36:15.941Z,-2.72
2023-02-28T03:38:46.645Z,-2.72
2023-02-28T03:41:19.726Z,-2.73
2023-02-28T03:43:56.318Z,-2.75
2023-02-28T03:46:24.956Z,-2.76
2023-02-28T03:48:53.029Z,-2.77
2023-02-28T03:51:20.385Z,-2.81
2023-02-28T03:54:02.956Z,-2.82
2023-02-28T03:56:36.422Z,-2.84
2023-02-28T03:59:07.569Z,-2.85
2023-02-28T04:01:39.365Z,-2.86
2023-02-28T04:04:06.090Z,-2.87
2023-02-28T04:06:33.426Z,-2.88
2023-02-28T04:09:00.671Z,-2.89
2023-02-28T04:11:35.495Z,-2.90
2023-02-28T04:14:03.722Z,-2.91
2023-02-28T04:16:35.313Z,-2.92
2023-02-28T04:19:05.355Z,-2.94
2023-02-28T04:21:34.338Z,-2.95
2023-02-28T04:24:06.497Z,-2.95
2023-02-28T04:26:35.791Z,-2.96
2023-02-28T04:29:04.128Z,-2.96
2023-02-28T04:31:32.097Z,-2.98
2023-02-28T04:33:59.292Z,-2.98
2023-02-28T04:36:26.340Z,-2.99
2023-02-28T04:38:55.123Z,-2.99
2023-02-28T04:41:23.368Z,-3.01
2023-02-28T04:43:52.456Z,-3.05
2023-02-28T04:46:20.472Z,-3.09
2023-02-28T04:48:47.263Z,-3.12
2023-02-28T04:51:14.929Z,-3.13
2023-02-28T04:53:44.158Z,-3.13
2023-02-28T04:56:13.216Z,-3.14
2023-02-28T04:58:40.102Z,-3.15
2023-02-28T05:01:25.111Z,-3.17
2023-02-28T05:03:52.484Z,-3.17
2023-02-28T05:06:22.149Z,-3.18
2023-02-28T05:08:49.085Z,-3.18
2023-02-28T05:11:22.572Z,-3.17
2023-02-28T05:13:49.772Z,-3.17
2023-02-28T05:16:16.813Z,-3.19
2023-02-28T05:18:47.483Z,-3.20
2023-02-28T05:21:26.489Z,-3.19
2023-02-28T05:23:53.444Z,-3.20
2023-02-28T05:26:20.254Z,-3.22
2023-02-28T05:28:47.273Z,-3.23
2023-02-28T05:31:14.964Z,-3.22
2023-02-28T05:33:41.684Z,-3.21
2023-02-28T05:36:08.727Z,-3.18
2023-02-28T05:38:37.780Z,-3.17
2023-02-28T05:41:09.389Z,-3.15
2023-02-28T05:43:37.531Z,-3.13
2023-02-28T05:46:06.150Z,-3.13
2023-02-28T05:48:35.780Z,-3.13
2023-02-28T05:51:03.086Z,-3.10
2023-02-28T05:53:31.194Z,-3.04
2023-02-28T05:55:57.917Z,-2.98
2023-02-28T05:58:29.478Z,-2.92
2023-02-28T06:00:57.544Z,-2.86
2023-02-28T06:03:25.363Z,-2.82
2023-02-28T06:05:52.279Z,-2.79
2023-02-28T06:08:19.318Z,-2.76
2023-02-28T06:10:46.411Z,-2.74
2023-02-28T06:13:13.268Z,-2.70
2023-02-28T06:15:40.046Z,-2.66
2023-02-28T06:18:07.124Z,-2.60
2023-02-28T06:20:35.033Z,-2.54
2023-02-28T06:23:01.802Z,-2.50
2023-02-28T06:25:29.339Z,-2.44
2023-02-28T06:27:56.426Z,-2.39
2023-02-28T06:30:25.778Z,-2.39
2023-02-28T06:32:53.102Z,-2.39
2023-02-28T06:35:20.499Z,-2.40
2023-02-28T06:37:47.711Z,-2.44
2023-02-28T06:40:14.992Z,-2.52
2023-02-28T06:42:43.205Z,-2.51
2023-02-28T06:45:11.089Z,-2.46
2023-02-28T06:47:39.703Z,-2.40
2023-02-28T06:50:07.611Z,-2.35
2023-02-28T06:52:36.579Z,-2.25
2023-02-28T06:55:07.242Z,-2.15
2023-02-28T06:57:34.810Z,-2.05
2023-02-28T07:00:03.524Z,-1.98
2023-02-28T07:02:32.176Z,-1.93
2023-02-28T07:04:59.107Z,-1.89
2023-02-28T07:07:26.105Z,-1.86
2023-02-28T07:09:52.967Z,-1.82
2023-02-28T07:12:21.535Z,-1.79
2023-02-28T07:14:49.017Z,-1.78
2023-02-28T07:17:16.318Z,-1.75
2023-02-28T07:19:44.256Z,-1.77
2023-02-28T07:27:00.444Z,-1.74
2023-02-28T07:29:27.322Z,-1.74
2023-02-28T07:31:55.115Z,-1.70
2023-02-28T07:34:22.460Z,-1.66
2023-02-28T07:36:54.942Z,-1.65
2023-02-28T07:39:22.233Z,-1.65
2023-02-28T07:41:49.237Z,-1.64
2023-02-28T07:44:16.354Z,-1.65
2023-02-28T07:46:43.279Z,-1.63
2023-02-28T07:49:10.130Z,-1.58
2023-02-28T07:51:37.583Z,-1.55
2023-02-28T07:54:05.435Z,-1.54
2023-02-28T07:56:33.108Z,-1.61
2023-02-28T07:59:00.046Z,-1.63
2023-02-28T08:01:27.604Z,-1.56
2023-02-28T08:08:45.466Z,-1.16
2023-02-28T08:11:12.904Z,-1.06
2023-02-28T08:13:39.635Z,-0.93
2023-02-28T08:16:10.784Z,-0.79
2023-02-28T08:18:38.340Z,-0.63
2023-02-28T08:21:11.360Z,-0.51
2023-02-28T08:23:40.843Z,-0.46
2023-02-28T08:26:07.842Z,-0.45
2023-02-28T08:28:34.664Z,-0.40
2023-02-28T08:31:01.578Z,-0.29
2023-02-28T08:33:28.688Z,-0.12
2023-02-28T08:35:56.298Z,0.07
2023-02-28T08:38:23.769Z,0.29
2023-02-28T08:40:51.114Z,0.48
2023-02-28T08:43:18.365Z,0.64
2023-02-28T08:45:45.644Z,0.91
2023-02-28T08:48:13.923Z,1.69
2023-02-28T08:50:46.449Z,2.45
2023-02-28T08:53:15.939Z,2.85
2023-02-28T08:55:42.862Z,3.01
2023-02-28T08:58:10.759Z,2.92
2023-02-28T09:00:37.583Z,2.81
2023-02-28T09:03:06.167Z,2.80
2023-02-28T09:05:33.671Z,3.15
2023-02-28T09:08:06.717Z,3.50
2023-02-28T09:10:33.647Z,3.62
2023-02-28T09:13:00.468Z,3.64
2023-02-28T09:15:27.562Z,3.63
2023-02-28T09:17:54.549Z,4.22
2023-02-28T09:20:26.196Z,5.56
2023-02-28T09:22:53.201Z,6.26
2023-02-28T09:25:20.151Z,6.29
2023-02-28T09:27:47.412Z,5.98
2023-02-28T09:30:14.498Z,5.69
2023-02-28T09:32:41.589Z,5.54
2023-02-28T09:35:13.816Z,5.36
2023-02-28T09:37:40.982Z,5.74
2023-02-28T09:40:10.171Z,6.89
2023-02-28T09:42:37.045Z,7.74
2023-02-28T09:45:07.882Z,8.18
2023-02-28T09:47:45.726Z,8.64
2023-02-28T09:50:24.381Z,8.73
2023-02-28T09:52:51.410Z,8.93
2023-02-28T09:55:32.746Z,9.46
2023-02-28T09:58:02.233Z,9.76
2023-02-28T10:00:38.359Z,10.40
2023-02-28T10:03:27.283Z,11.30
2023-02-28T10:06:17.796Z,12.18
2023-02-28T10:09:15.643Z,13.01
2023-02-28T10:14:17.252Z,14.51
2023-02-28T10:16:54.342Z,15.17
2023-02-28T10:19:24.576Z,15.65
2023-02-28T10:21:59.645Z,15.95
2023-02-28T10:24:26.557Z,15.43
2023-02-28T10:27:06.579Z,14.96
2023-02-28T10:29:33.905Z,15.35
2023-02-28T10:32:01.741Z,15.84
2023-02-28T10:34:28.648Z,16.29
2023-02-28T10:36:55.639Z,16.51
2023-02-28T10:39:46.801Z,16.33
2023-02-28T10:42:19.638Z,16.53
2023-02-28T10:44:49.171Z,16.77
2023-02-28T10:47:19.368Z,17.07
2023-02-28T10:49:49.797Z,17.31
2023-02-28T10:52:39.664Z,17.23
2023-02-28T10:55:25.725Z,17.24
2023-02-28T10:57:52.941Z,17.59
2023-02-28T11:00:25.774Z,17.82
2023-02-28T11:02:52.715Z,17.67
2023-02-28T11:05:28.300Z,17.60
2023-02-28T11:07:57.790Z,17.73
2023-02-28T11:10:27.168Z,17.93
2023-02-28T11:12:58.196Z,18.02
2023-02-28T11:15:31.477Z,17.75
2023-02-28T11:18:13.439Z,17.20
2023-02-28T11:20:40.868Z,16.63
2023-02-28T11:23:12.509Z,15.85
2023-02-28T11:25:39.980Z,14.93
2023-02-28T11:28:36.236Z,14.08
2023-02-28T11:31:12.544Z,13.09
2023-02-28T11:33:47.843Z,12.54
2023-02-28T11:36:25.889Z,11.96
2023-02-28T11:39:08.847Z,11.56
2023-02-28T11:42:13.320Z,11.10
2023-02-28T11:44:55.504Z,10.49
2023-02-28T11:47:28.388Z,10.00
2023-02-28T11:49:55.333Z,9.40
2023-02-28T11:52:29.747Z,9.04
2023-02-28T11:55:08.935Z,8.87
2023-02-28T11:58:04.972Z,8.79
2023-02-28T12:00:45.433Z,8.63
2023-02-28T12:03:29.301Z,8.41
2023-02-28T12:06:10.295Z,8.20
2023-02-28T12:08:52.322Z,7.95
2023-02-28T12:11:41.045Z,7.63
2023-02-28T12:14:30.090Z,7.39
2023-02-28T12:17:01.751Z,7.07
2023-02-28T12:19:36.402Z,6.64
2023-02-28T12:22:11.717Z,6.40
2023-02-28T12:25:06.733Z,6.32
2023-02-28T12:31:44.589Z,6.03
2023-02-28T12:34:14.573Z,6.03
2023-02-28T12:36:42.169Z,5.95
2023-02-28T12:39:18.494Z,5.71
2023-02-28T12:41:47.534Z,5.45
2023-02-28T12:44:18.723Z,5.30
2023-02-28T12:46:50.419Z,5.26
2023-02-28T12:49:34.896Z,5.31
2023-02-28T12:52:02.707Z,5.31
2023-02-28T12:54:37.919Z,5.34
2023-02-28T12:57:17.906Z,5.29
2023-02-28T12:59:57.151Z,5.31
2023-02-28T13:03:02.017Z,5.32
2023-02-28T13:05:40.064Z,5.24
2023-02-28T13:08:44.847Z,5.27
2023-02-28T13:11:26.935Z,5.28
2023-02-28T13:14:07.234Z,5.16
2023-02-28T13:17:02.698Z,5.04
2023-02-28T13:19:31.770Z,4.89
2023-02-28T13:22:00.834Z,4.76
2023-02-28T13:24:43.386Z,4.78
2023-02-28T13:27:30.515Z,4.82
2023-02-28T13:30:00.539Z,4.80
2023-02-28T13:32:34.321Z,4.80
2023-02-28T13:35:39.743Z,4.77
2023-02-28T13:38:17.350Z,4.73
2023-02-28T13:40:46.785Z,4.68
2023-02-28T13:43:22.608Z,4.61
2023-02-28T13:46:12.690Z,4.51
2023-02-28T13:48:41.855Z,4.42
2023-02-28T13:52:27.715Z,4.28
2023-02-28T13:55:39.407Z,4.00
2023-02-28T13:59:19.453Z,3.78
2023-02-28T14:02:28.419Z,3.61
2023-02-28T14:05:01.219Z,3.52
2023-02-28T14:12:38.421Z,3.15
2023-02-28T14:15:46.958Z,2.93
2023-02-28T14:18:59.398Z,2.75
2023-02-28T14:29:49.319Z,2.20
2023-02-28T14:32:41.153Z,1.84
2023-02-28T14:35:26.672Z,1.58
2023-02-28T14:37:54.505Z,1.42
2023-02-28T14:40:24.430Z,1.31
2023-02-28T14:42:56.644Z,1.20
2023-02-28T14:45:23.405Z,1.06
2023-02-28T14:47:51.137Z,0.90
2023-02-28T14:50:25.156Z,0.76
2023-02-28T14:52:56.176Z,0.63
2023-02-28T14:55:30.841Z,0.50
2023-02-28T14:58:06.943Z,0.34
2023-02-28T15:00:35.245Z,0.17
2023-02-28T15:03:21.306Z,0.08
2023-02-28T15:05:55.636Z,-0.01
2023-02-28T15:08:23.280Z,-0.07
2023-02-28T15:11:05.122Z,-0.13
2023-02-28T15:13:49.808Z,-0.18
2023-02-28T15:16:18.954Z,-0.24
2023-02-28T15:19:06.073Z,-0.30
2023-02-28T15:21:38.581Z,-0.37
2023-02-28T15:24:14.029Z,-0.48
2023-02-28T15:26:46.567Z,-0.56
2023-02-28T15:29:19.757Z,-0.66
2023-02-28T15:32:03.519Z,-0.75
2023-02-28T15:34:42.638Z,-0.86
2023-02-28T15:37:27.024Z,-0.96
2023-02-28T15:39:55.295Z,-1.07
2023-02-28T15:42:23.424Z,-1.17
2023-02-28T15:44:50.764Z,-1.26
2023-02-28T15:47:26.747Z,-1.33
2023-02-28T15:49:54.299Z,-1.39
2023-02-28T15:52:35.345Z,-1.44
2023-02-28T15:55:27.500Z,-1.52
2023-02-28T15:57:55.767Z,-1.57
2023-02-28T16:00:24.439Z,-1.62
2023-02-28T16:02:51.311Z,-1.67
2023-02-28T16:05:38.879Z,-1.76
2023-02-28T16:08:14.922Z,-1.82
2023-02-28T16:10:44.397Z,-1.88
2023-02-28T16:13:12.934Z,-1.94
2023-02-28T16:15:44.835Z,-1.97
2023-02-28T16:18:12.448Z,-1.99
2023-02-28T16:20:39.224Z,-2.02
2023-02-28T16:23:05.949Z,-2.05
2023-02-28T16:25:38.618Z,-2.09
2023-02-28T16:28:18.929Z,-2.12
2023-02-28T16:30:45.649Z,-2.16
2023-02-28T16:33:13.422Z,-2.19
2023-02-28T16:35:40.506Z,-2.22
2023-02-28T16:38:07.575Z,-2.25
2023-02-28T16:40:35.986Z,-2.28
2023-02-28T16:43:06.802Z,-2.34
2023-02-28T16:45:34.131Z,-2.39
2023-02-28T16:48:01.099Z,-2.43
2023-02-28T16:50:30.007Z,-2.47
2023-02-28T16:52:56.847Z,-2.49
2023-02-28T16:55:24.148Z,-2.51
2023-02-28T16:57:55.816Z,-2.55
2023-02-28T17:00:23.044Z,-2.59
2023-02-28T17:02:49.926Z,-2.61
2023-02-28T17:05:17.752Z,-2.64
2023-02-28T17:07:44.977Z,-2.68
2023-02-28T17:10:22.335Z,-2.72
2023-02-28T17:12:49.647Z,-2.76
2023-02-28T17:15:18.060Z,-2.81
2023-02-28T17:17:45.298Z,-2.85
2023-02-28T17:20:17.482Z,-2.89
2023-02-28T17:22:44.184Z,-2.92
2023-02-28T17:25:11.009Z,-2.95
2023-02-28T17:27:38.352Z,-2.99
2023-02-28T17:30:26.061Z,-3.01
2023-02-28T17:32:55.832Z,-3.04
2023-02-28T17:35:23.318Z,-3.06
2023-02-28T17:37:51.250Z,-3.10
2023-02-28T17:40:23.055Z,-3.13
2023-02-28T17:42:52.564Z,-3.15
2023-02-28T17:45:20.245Z,-3.17
2023-02-28T17:47:49.114Z,-3.19
2023-02-28T17:50:20.620Z,-3.22
2023-02-28T17:52:47.428Z,-3.23
2023-02-28T17:55:14.139Z,-3.24
2023-02-28T17:57:42.233Z,-3.27
2023-02-28T18:00:16.204Z,-3.30
2023-02-28T18:02:44.171Z,-3.35
2023-02-28T18:05:10.898Z,-3.38
2023-02-28T18:07:38.709Z,-3.41
2023-02-28T18:10:19.826Z,-3.44
2023-02-28T18:12:49.239Z,-3.47
2023-02-28T18:15:17.118Z,-3.51
2023-02-28T18:17:46.496Z,-3.53
2023-02-28T18:20:13.197Z,-3.56
2023-02-28T18:22:40.659Z,-3.58
2023-02-28T18:25:08.747Z,-3.58
2023-02-28T18:27:36.009Z,-3.60
2023-02-28T18:30:04.506Z,-3.62
2023-02-28T18:32:31.660Z,-3.63
2023-02-28T18:35:00.919Z,-3.65
2023-02-28T18:37:27.838Z,-3.68
2023-02-28T18:39:54.947Z,-3.71
2023-02-28T18:42:22.864Z,-3.73
2023-02-28T18:44:49.996Z,-3.77
2023-02-28T18:47:18.010Z,-3.82
2023-02-28T18:49:44.990Z,-3.86
2023-02-28T18:52:15.717Z,-3.91
2023-02-28T18:54:42.915Z,-3.94
2023-02-28T18:57:09.568Z,-3.97
2023-02-28T18:59:37.231Z,-4.00
2023-02-28T19:02:03.982Z,-4.02
2023-02-28T19:04:31.384Z,-4.04
2023-02-28T19:06:59.664Z,-4.07
2023-02-28T19:09:26.597Z,-4.10
2023-02-28T19:11:53.240Z,-4.12
2023-02-28T19:14:21.392Z,-4.13
2023-02-28T19:16:49.652Z,-4.16
2023-02-28T19:19:16.716Z,-4.18
2023-02-28T19:21:44.491Z,-4.19
2023-02-28T19:24:12.008Z,-4.21
2023-02-28T19:26:38.912Z,-4.21
2023-02-28T19:29:06.417Z,-4.22
2023-02-28T19:31:33.297Z,-4.24
2023-02-28T19:34:01.211Z,-4.25
2023-02-28T19:36:28.339Z,-4.25
2023-02-28T19:38:55.616Z,-4.25
2023-02-28T19:41:23.744Z,-4.24
2023-02-28T19:43:51.904Z,-4.25
2023-02-28T19:46:21.211Z,-4.26
2023-02-28T19:48:48.265Z,-4.27
2023-02-28T19:53:47.935Z,-4.29
2023-02-28T19:56:14.819Z,-4.28
2023-02-28T19:58:41.890Z,-4.28
2023-02-28T20:01:17.809Z,-4.29
2023-02-28T20:03:49.741Z,-4.30
2023-02-28T20:06:16.484Z,-4.32
2023-02-28T20:08:44.165Z,-4.34
2023-02-28T20:11:15.264Z,-4.34
2023-02-28T20:13:42.203Z,-4.32
2023-02-28T20:16:10.143Z,-4.33
2023-02-28T20:18:38.012Z,-4.34
2023-02-28T20:21:07.078Z,-4.36
2023-02-28T20:23:38.186Z,-4.38
2023-02-28T20:26:05.274Z,-4.40
2023-02-28T20:28:32.048Z,-4.42
2023-02-28T20:31:00.018Z,-4.42
2023-02-28T20:33:27.180Z,-4.42
2023-02-28T20:36:01.471Z,-4.42
2023-02-28T20:38:28.738Z,-4.43
2023-02-28T20:41:00.156Z,-4.43
2023-02-28T20:43:29.450Z,-4.44
2023-02-28T20:45:58.181Z,-4.45
2023-02-28T20:48:26.326Z,-4.46
2023-02-28T20:50:54.273Z,-4.47
2023-02-28T20:53:21.607Z,-4.49
2023-02-28T20:55:55.161Z,-4.51
2023-02-28T20:58:21.915Z,-4.52
2023-02-28T21:00:48.604Z,-4.54
2023-02-28T21:03:15.522Z,-4.54
2023-02-28T21:05:42.433Z,-4.55
2023-02-28T21:08:10.172Z,-4.56
2023-02-28T21:10:38.531Z,-4.56
2023-02-28T21:13:06.060Z,-4.55
2023-02-28T21:15:37.072Z,-4.55
2023-02-28T21:18:03.827Z,-4.55
2023-02-28T21:20:30.705Z,-4.57
2023-02-28T21:22:57.827Z,-4.57
2023-02-28T21:25:25.478Z,-4.59
2023-02-28T21:27:55.069Z,-4.58
2023-02-28T21:30:21.942Z,-4.58
2023-02-28T21:32:49.146Z,-4.58
2023-02-28T21:35:15.913Z,-4.56
2023-02-28T21:37:43.540Z,-4.56
2023-02-28T21:40:16.321Z,-4.55
2023-02-28T21:42:43.365Z,-4.54
2023-02-28T21:45:10.585Z,-4.53
2023-02-28T21:47:37.564Z,-4.53
2023-02-28T21:50:04.520Z,-4.52
2023-02-28T21:52:32.829Z,-4.50
2023-02-28T21:54:59.788Z,-4.49
2023-02-28T21:57:31.598Z,-4.48
2023-02-28T21:59:58.500Z,-4.46
2023-02-28T22:02:25.360Z,-4.45
2023-02-28T22:04:52.252Z,-4.46
2023-02-28T22:07:19.201Z,-4.47
2023-02-28T22:09:47.399Z,-4.50
2023-02-28T22:12:14.723Z,-4.51
2023-02-28T22:14:41.679Z,-4.52
2023-02-28T22:17:08.514Z,-4.54
2023-02-28T22:19:36.503Z,-4.57
2023-02-28T22:22:03.438Z,-4.59
2023-02-28T22:24:30.358Z,-4.59
2023-02-28T22:26:57.913Z,-4.59
2023-02-28T22:29:24.589Z,-4.59
2023-02-28T22:31:51.393Z,-4.61
2023-02-28T22:34:19.695Z,-4.63
2023-02-28T22:36:46.870Z,-4.63
2023-02-28T22:39:13.595Z,-4.63
2023-02-28T22:41:41.533Z,-4.63
2023-02-28T22:44:10.094Z,-4.66
2023-02-28T22:46:37.845Z,-4.68
2023-02-28T22:49:05.001Z,-4.70
2023-02-28T22:51:33.969Z,-4.71
2023-02-28T22:54:01.459Z,-4.73
2023-02-28T22:56:30.089Z,-4.75
2023-02-28T22:58:58.260Z,-4.76
2023-02-28T23:01:26.519Z,-4.77
2023-02-28T23:03:53.956Z,-4.77
2023-02-28T23:06:26.430Z,-4.77
2023-02-28T23:08:56.573Z,-4.76
2023-02-28T23:11:34.360Z,-4.76
2023-02-28T23:14:02.067Z,-4.77
2023-02-28T23:16:40.195Z,-4.77
2023-02-28T23:19:13.405Z,-4.79
2023-02-28T23:21:41.193Z,-4.81
2023-02-28T23:24:11.308Z,-4.83
2023-02-28T23:26:41.120Z,-4.86
2023-02-28T23:29:08.313Z,-4.89
2023-02-28T23:31:36.035Z,-4.89
2023-02-28T23:34:02.839Z,-4.91
2023-02-28T23:36:31.784Z,-4.91
2023-02-28T23:38:59.289Z,-4.91
2023-02-28T23:41:25.984Z,-4.90
2023-02-28T23:43:52.804Z,-4.90
2023-02-28T23:46:19.569Z,-4.89
2023-02-28T23:48:46.335Z,-4.88
2023-02-28T23:51:18.615Z,-4.88
2023-02-28T23:53:48.246Z,-4.88
2023-02-28T23:56:17.863Z,-4.87
2023-02-28T23:58:47.540Z,-4.86
